createdAt,value
2022-11-22T00:00:40.498Z,9.20
2022-11-22T00:03:07.492Z,8.90
2022-11-22T00:05:34.406Z,9.10
2022-11-22T00:08:01.157Z,9.10
2022-11-22T00:10:27.877Z,9.10
2022-11-22T00:12:54.994Z,9.10
2022-11-22T00:15:21.770Z,9.10
2022-11-22T00:17:48.544Z,9.00
2022-11-22T00:20:15.384Z,9.00
2022-11-22T00:22:44.706Z,9.10
2022-11-22T00:25:13.231Z,8.90
2022-11-22T00:27:40.937Z,9.00
2022-11-22T00:30:08.247Z,8.90
2022-11-22T00:32:35.169Z,9.10
2022-11-22T00:35:01.984Z,9.10
2022-11-22T00:37:28.853Z,9.50
2022-11-22T00:39:55.646Z,9.10
2022-11-22T00:42:22.663Z,9.00
2022-11-22T00:44:49.438Z,9.50
2022-11-22T00:47:16.267Z,8.90
2022-11-22T00:49:43.012Z,8.80
2022-11-22T00:52:09.836Z,8.90
2022-11-22T00:54:36.666Z,8.90
2022-11-22T00:57:03.444Z,9.10
2022-11-22T00:59:30.584Z,9.20
2022-11-22T01:01:57.609Z,9.30
2022-11-22T01:04:24.391Z,9.10
2022-11-22T01:06:51.209Z,9.20
2022-11-22T01:09:21.812Z,9.60
2022-11-22T01:11:49.489Z,9.40
2022-11-22T01:14:17.314Z,9.20
2022-11-22T01:16:44.340Z,8.90
2022-11-22T01:19:11.170Z,9.30
2022-11-22T01:21:38.280Z,9.00
2022-11-22T01:24:05.387Z,9.10
2022-11-22T01:26:33.651Z,9.10
2022-11-22T01:29:00.570Z,8.80
2022-11-22T01:31:27.346Z,8.80
2022-11-22T01:33:54.073Z,8.90
2022-11-22T01:36:20.838Z,8.80
2022-11-22T01:38:47.604Z,8.70
2022-11-22T01:41:14.833Z,8.80
2022-11-22T01:43:41.600Z,8.90
2022-11-22T01:46:26.468Z,8.80
2022-11-22T01:49:16.244Z,8.60
2022-11-22T01:51:46.855Z,8.70
2022-11-22T01:54:19.650Z,8.50
2022-11-22T01:56:52.578Z,8.70
2022-11-22T01:59:27.052Z,8.80
2022-11-22T02:01:54.478Z,8.60
2022-11-22T02:04:23.977Z,8.70
2022-11-22T02:07:10.251Z,8.80
2022-11-22T02:09:38.941Z,8.80
2022-11-22T02:12:07.349Z,8.90
2022-11-22T02:14:34.890Z,9.00
2022-11-22T02:17:01.743Z,8.60
2022-11-22T02:19:48.147Z,8.90
2022-11-22T02:22:42.217Z,8.90
2022-11-22T02:25:35.474Z,8.70
2022-11-22T02:28:04.032Z,8.80
2022-11-22T02:30:30.870Z,8.70
2022-11-22T02:32:57.634Z,8.50
2022-11-22T02:35:27.610Z,8.50
2022-11-22T02:38:02.264Z,8.40
2022-11-22T02:40:35.342Z,8.50
2022-11-22T02:43:09.792Z,8.50
2022-11-22T02:45:36.532Z,8.50
2022-11-22T02:48:16.695Z,8.50
2022-11-22T02:51:13.997Z,8.50
2022-11-22T02:53:40.757Z,8.40
2022-11-22T02:56:07.482Z,8.50
2022-11-22T02:58:34.644Z,8.40
2022-11-22T03:01:01.477Z,8.40
2022-11-22T03:03:32.782Z,8.40
2022-11-22T03:06:07.845Z,8.30
2022-11-22T03:08:37.926Z,8.40
2022-11-22T03:11:09.538Z,8.50
2022-11-22T03:13:40.522Z,8.80
2022-11-22T03:16:10.845Z,8.50
2022-11-22T03:18:41.708Z,8.40
2022-11-22T03:21:18.510Z,8.70
2022-11-22T03:23:58.814Z,8.50
2022-11-22T03:26:25.774Z,8.40
2022-11-22T03:28:54.435Z,8.60
2022-11-22T03:31:24.693Z,8.60
2022-11-22T03:33:55.799Z,8.50
2022-11-22T03:36:28.591Z,8.90
2022-11-22T03:38:58.564Z,8.90
2022-11-22T03:41:25.345Z,8.80
2022-11-22T03:43:52.156Z,8.50
2022-11-22T03:46:19.504Z,8.30
2022-11-22T03:48:46.885Z,8.20
2022-11-22T03:51:13.921Z,8.30
2022-11-22T03:53:40.987Z,8.30
2022-11-22T03:56:09.042Z,8.30
2022-11-22T03:58:36.029Z,8.60
2022-11-22T04:01:03.358Z,8.60
2022-11-22T04:03:30.199Z,8.90
2022-11-22T04:05:56.960Z,8.60
2022-11-22T04:08:24.174Z,8.50
2022-11-22T04:10:52.198Z,8.20
2022-11-22T04:13:20.035Z,8.40
2022-11-22T04:15:46.777Z,8.30
2022-11-22T04:18:14.260Z,8.60
2022-11-22T04:21:02.393Z,8.30
2022-11-22T04:23:34.270Z,8.40
2022-11-22T04:26:02.929Z,8.40
2022-11-22T04:29:01.442Z,8.40
2022-11-22T04:31:37.398Z,8.50
2022-11-22T04:34:06.249Z,8.30
2022-11-22T04:36:33.292Z,8.30
2022-11-22T04:39:00.576Z,8.40
2022-11-22T04:41:29.035Z,8.30
2022-11-22T04:44:14.083Z,8.20
2022-11-22T04:46:40.832Z,8.10
2022-11-22T04:49:07.574Z,8.10
2022-11-22T04:51:52.990Z,8.10
2022-11-22T04:54:19.713Z,8.40
2022-11-22T04:56:46.462Z,8.10
2022-11-22T04:59:13.306Z,8.20
2022-11-22T05:01:40.156Z,8.10
2022-11-22T05:04:06.893Z,8.00
2022-11-22T05:06:33.623Z,8.00
2022-11-22T05:09:00.371Z,7.90
2022-11-22T05:11:27.087Z,8.00
2022-11-22T05:13:53.826Z,8.00
2022-11-22T05:16:20.710Z,8.00
2022-11-22T05:18:59.172Z,7.80
2022-11-22T05:21:28.426Z,7.80
2022-11-22T05:23:55.604Z,7.90
2022-11-22T05:26:33.495Z,7.80
2022-11-22T05:29:06.646Z,8.20
2022-11-22T05:31:35.629Z,7.90
2022-11-22T05:34:03.143Z,8.30
2022-11-22T05:36:33.045Z,8.00
2022-11-22T05:39:00.394Z,8.00
2022-11-22T05:41:27.935Z,7.80
2022-11-22T05:43:56.692Z,7.90
2022-11-22T05:46:27.665Z,7.70
2022-11-22T05:48:56.479Z,7.90
2022-11-22T05:51:30.848Z,7.60
2022-11-22T05:54:00.621Z,7.70
2022-11-22T05:56:27.407Z,7.90
2022-11-22T05:58:54.205Z,7.70
2022-11-22T06:01:23.278Z,7.80
2022-11-22T06:03:50.753Z,7.60
2022-11-22T06:06:17.749Z,7.90
2022-11-22T06:08:47.729Z,7.60
2022-11-22T06:11:27.053Z,7.90
2022-11-22T06:13:58.719Z,7.70
2022-11-22T06:16:27.315Z,7.80
2022-11-22T06:18:54.815Z,7.90
2022-11-22T06:21:24.766Z,7.60
2022-11-22T06:23:53.952Z,7.80
2022-11-22T06:26:22.354Z,7.60
2022-11-22T06:28:50.095Z,7.60
2022-11-22T06:31:26.778Z,7.60
2022-11-22T06:33:55.889Z,7.70
2022-11-22T06:36:25.545Z,7.70
2022-11-22T06:38:52.858Z,7.50
2022-11-22T06:41:23.030Z,7.40
2022-11-22T06:43:51.743Z,7.70
2022-11-22T06:46:21.590Z,7.50
2022-11-22T06:48:49.303Z,7.50
2022-11-22T06:51:18.440Z,7.60
2022-11-22T06:53:48.278Z,7.50
2022-11-22T06:56:19.202Z,7.50
2022-11-22T06:58:47.371Z,7.40
2022-11-22T07:01:24.489Z,7.30
2022-11-22T07:03:52.105Z,7.60
2022-11-22T07:06:19.596Z,7.40
2022-11-22T07:08:47.141Z,7.30
2022-11-22T07:11:17.563Z,7.30
2022-11-22T07:13:45.120Z,7.50
2022-11-22T07:16:16.607Z,7.30
2022-11-22T07:18:44.128Z,7.40
2022-11-22T07:21:19.568Z,7.20
2022-11-22T07:23:49.669Z,7.60
2022-11-22T07:26:17.980Z,7.40
2022-11-22T07:28:45.858Z,7.30
2022-11-22T07:31:15.090Z,7.30
2022-11-22T07:33:43.164Z,7.50
2022-11-22T07:36:18.213Z,7.30
2022-11-22T07:38:45.889Z,7.50
2022-11-22T07:41:13.394Z,7.30
2022-11-22T07:43:40.271Z,7.50
2022-11-22T07:46:15.738Z,7.60
2022-11-22T07:48:42.509Z,7.90
2022-11-22T07:51:09.353Z,7.60
2022-11-22T07:53:36.153Z,7.70
2022-11-22T07:56:07.350Z,7.50
2022-11-22T07:58:35.204Z,7.40
2022-11-22T08:01:17.619Z,7.50
2022-11-22T08:03:46.003Z,7.70
2022-11-22T08:06:14.152Z,7.80
2022-11-22T08:08:41.040Z,7.50
2022-11-22T08:11:08.366Z,7.70
2022-11-22T08:13:35.807Z,7.80
2022-11-22T08:16:09.696Z,7.70
2022-11-22T08:18:37.957Z,7.50
2022-11-22T08:21:11.104Z,7.60
2022-11-22T08:23:39.004Z,7.80
2022-11-22T08:26:08.885Z,8.00
2022-11-22T08:28:36.213Z,7.80
2022-11-22T08:31:10.367Z,7.90
2022-11-22T08:33:37.212Z,8.00
2022-11-22T08:36:04.613Z,7.50
2022-11-22T08:38:31.434Z,7.70
2022-11-22T08:40:58.755Z,7.70
2022-11-22T08:43:25.679Z,7.60
2022-11-22T08:45:58.179Z,7.70
2022-11-22T08:48:26.485Z,7.60
2022-11-22T08:50:59.496Z,7.60
2022-11-22T08:53:27.335Z,7.50
2022-11-22T08:55:55.012Z,7.60
2022-11-22T08:58:22.591Z,7.50
2022-11-22T09:00:49.328Z,7.70
2022-11-22T09:03:16.159Z,7.50
2022-11-22T09:08:32.712Z,7.60
2022-11-22T09:11:15.175Z,7.40
2022-11-22T09:13:42.750Z,7.80
2022-11-22T09:16:18.915Z,7.70
2022-11-22T09:18:47.009Z,7.60
2022-11-22T09:21:17.869Z,7.60
2022-11-22T09:23:47.365Z,7.80
2022-11-22T09:26:20.359Z,8.10
2022-11-22T09:28:47.221Z,8.00
2022-11-22T09:31:21.336Z,7.70
2022-11-22T09:33:49.427Z,8.40
2022-11-22T09:36:19.365Z,8.10
2022-11-22T09:38:46.526Z,8.00
2022-11-22T09:41:16.213Z,7.80
2022-11-22T09:44:04.684Z,7.70
2022-11-22T09:46:54.759Z,7.90
2022-11-22T09:49:39.359Z,7.80
2022-11-22T09:52:37.856Z,7.80
2022-11-22T09:55:17.685Z,7.70
2022-11-22T09:57:56.599Z,7.70
2022-11-22T10:00:26.551Z,7.90
2022-11-22T10:03:18.331Z,7.80
2022-11-22T10:05:54.288Z,7.80
2022-11-22T10:08:44.877Z,7.90
2022-11-22T10:11:44.123Z,7.80
2022-11-22T10:14:43.208Z,7.90
2022-11-22T10:17:24.240Z,7.60
2022-11-22T10:20:02.198Z,7.60
2022-11-22T10:22:30.464Z,7.40
2022-11-22T10:25:00.616Z,7.60
2022-11-22T10:27:32.956Z,7.70
2022-11-22T10:30:14.387Z,8.30
2022-11-22T10:32:52.586Z,7.80
2022-11-22T10:35:58.505Z,7.60
2022-11-22T10:39:02.111Z,7.70
2022-11-22T10:41:37.429Z,7.70
2022-11-22T10:44:20.713Z,7.60
2022-11-22T10:47:34.691Z,7.50
2022-11-22T10:50:17.040Z,7.70
2022-11-22T10:53:25.282Z,8.00
2022-11-22T10:56:33.634Z,7.80
2022-11-22T10:59:17.341Z,8.10
2022-11-22T11:02:00.892Z,8.00
2022-11-22T11:04:35.750Z,8.00
2022-11-22T11:11:10.037Z,8.10
2022-11-22T11:14:17.398Z,8.40
2022-11-22T11:23:48.344Z,8.10
2022-11-22T11:31:29.879Z,8.00
2022-11-22T11:41:45.472Z,8.40
2022-11-22T11:44:42.861Z,8.40
2022-11-22T11:54:13.285Z,8.70
2022-11-22T11:56:47.799Z,8.70
2022-11-22T11:59:17.681Z,8.60
2022-11-22T12:02:02.825Z,8.40
2022-11-22T12:04:37.215Z,8.20
2022-11-22T12:07:38.436Z,8.50
2022-11-22T12:10:41.456Z,8.40
2022-11-22T12:14:18.599Z,8.50
2022-11-22T12:16:44.826Z,8.60
2022-11-22T12:19:37.176Z,8.70
2022-11-22T12:25:43.905Z,8.70
2022-11-22T12:28:34.377Z,8.50
2022-11-22T12:32:34.585Z,8.40
2022-11-22T12:39:33.694Z,8.80
2022-11-22T12:42:32.686Z,9.20
2022-11-22T12:45:35.247Z,8.90
2022-11-22T12:48:13.398Z,8.50
2022-11-22T12:48:23.209Z,8.50
2022-11-22T12:50:48.849Z,8.80
2022-11-22T12:53:22.991Z,9.20
2022-11-22T12:56:01.999Z,8.50
2022-11-22T12:58:50.086Z,9.00
2022-11-22T13:01:54.484Z,9.10
2022-11-22T13:04:39.307Z,8.90
2022-11-22T13:07:35.806Z,8.90
2022-11-22T13:11:02.850Z,8.80
2022-11-22T13:14:49.995Z,8.80
2022-11-22T13:17:52.697Z,8.80
2022-11-22T13:20:43.226Z,9.20
2022-11-22T13:28:03.377Z,9.20
2022-11-22T13:30:44.979Z,9.20
2022-11-22T13:33:38.869Z,9.00
2022-11-22T13:36:38.350Z,8.90
2022-11-22T13:39:37.525Z,9.20
2022-11-22T13:42:06.519Z,9.00
2022-11-22T13:44:34.866Z,9.30
2022-11-22T13:47:12.456Z,9.20
2022-11-22T13:49:48.616Z,9.00
2022-11-22T13:52:15.666Z,9.40
2022-11-22T13:54:48.401Z,9.10
2022-11-22T13:57:35.491Z,8.80
2022-11-22T14:00:14.498Z,9.10
2022-11-22T14:03:21.694Z,8.90
2022-11-22T14:05:55.162Z,9.00
2022-11-22T14:08:36.360Z,9.40
2022-11-22T14:11:26.330Z,8.70
2022-11-22T14:14:08.763Z,8.50
2022-11-22T14:17:01.605Z,8.50
2022-11-22T14:20:02.093Z,8.50
2022-11-22T14:22:46.034Z,8.40
2022-11-22T14:25:29.741Z,8.80
2022-11-22T14:28:33.920Z,8.70
2022-11-22T14:31:12.212Z,8.60
2022-11-22T14:34:27.260Z,8.70
2022-11-22T14:37:12.832Z,8.70
2022-11-22T14:39:45.648Z,8.80
2022-11-22T14:42:52.196Z,9.00
2022-11-22T14:45:41.430Z,8.80
2022-11-22T14:48:31.261Z,9.00
2022-11-22T14:51:03.867Z,8.50
2022-11-22T14:53:40.982Z,9.00
2022-11-22T14:56:34.021Z,9.10
2022-11-22T14:59:51.020Z,9.00
2022-11-22T15:02:57.940Z,8.70
2022-11-22T15:09:12.948Z,8.60
2022-11-22T15:09:22.950Z,9.00
2022-11-22T15:12:11.494Z,8.60
2022-11-22T15:59:43.465Z,8.90
2022-11-22T16:02:24.041Z,8.90
2022-11-22T16:06:03.545Z,9.10
2022-11-22T16:07:49.920Z,8.90
2022-11-22T16:10:27.883Z,8.80
2022-11-22T16:13:20.557Z,9.00
2022-11-22T16:16:17.672Z,9.00
2022-11-22T16:18:59.335Z,8.80
2022-11-22T16:21:45.209Z,9.10
2022-11-22T16:24:31.805Z,9.00
2022-11-22T16:27:44.072Z,9.00
2022-11-22T16:30:23.359Z,8.90
2022-11-22T16:32:59.570Z,8.80
2022-11-22T16:36:00.671Z,8.80
2022-11-22T16:38:28.635Z,8.70
2022-11-22T16:40:58.384Z,8.90
2022-11-22T16:43:27.025Z,8.80
2022-11-22T16:45:54.349Z,8.60
2022-11-22T16:48:33.491Z,8.50
2022-11-22T16:51:06.825Z,8.50
2022-11-22T16:53:48.285Z,8.70
2022-11-22T16:56:26.952Z,8.60
2022-11-22T16:58:56.907Z,8.40
2022-11-22T17:01:26.836Z,8.50
2022-11-22T17:03:56.559Z,8.60
2022-11-22T17:06:26.220Z,8.60
2022-11-22T17:08:55.854Z,8.60
2022-11-22T17:11:27.010Z,8.60
2022-11-22T17:13:54.285Z,8.60
2022-11-22T17:16:21.069Z,8.60
2022-11-22T17:18:48.303Z,8.70
2022-11-22T17:21:34.286Z,8.60
2022-11-22T17:24:07.076Z,8.70
2022-11-22T17:26:34.668Z,8.70
2022-11-22T17:29:01.964Z,8.80
2022-11-22T17:31:29.221Z,8.70
2022-11-22T17:33:58.554Z,8.70
2022-11-22T17:36:36.570Z,8.80
2022-11-22T17:39:07.641Z,8.60
2022-11-22T17:41:35.302Z,8.60
2022-11-22T17:44:03.785Z,8.70
2022-11-22T17:46:33.073Z,8.70
2022-11-22T17:49:01.908Z,8.50
2022-11-22T17:51:30.518Z,8.70
2022-11-22T17:53:58.247Z,8.80
2022-11-22T17:56:27.105Z,8.80
2022-11-22T17:58:53.854Z,8.60
2022-11-22T18:01:22.835Z,8.60
2022-11-22T18:03:49.902Z,8.60
2022-11-22T18:06:18.975Z,8.90
2022-11-22T18:08:47.438Z,8.70
2022-11-22T18:11:15.870Z,8.70
2022-11-22T18:13:43.415Z,8.50
2022-11-22T18:16:14.623Z,8.70
2022-11-22T18:18:56.841Z,8.70
2022-11-22T18:21:25.521Z,8.90
2022-11-22T18:23:52.313Z,8.60
2022-11-22T18:31:53.650Z,8.70
2022-11-22T18:34:22.378Z,8.70
2022-11-22T18:37:01.251Z,8.70
2022-11-22T18:39:32.132Z,8.50
2022-11-22T18:41:59.189Z,8.60
2022-11-22T18:44:26.008Z,9.00
2022-11-22T18:46:52.970Z,8.60
2022-11-22T18:49:19.700Z,8.70
2022-11-22T18:51:46.454Z,8.40
2022-11-22T18:54:13.342Z,8.70
2022-11-22T18:56:40.876Z,8.50
2022-11-22T18:59:12.725Z,9.00
2022-11-22T19:01:40.515Z,9.00
2022-11-22T19:04:08.453Z,8.70
2022-11-22T19:06:35.228Z,8.50
2022-11-22T19:09:02.536Z,8.70
2022-11-22T19:11:31.965Z,8.70
2022-11-22T19:13:59.395Z,8.90
2022-11-22T19:16:29.494Z,8.80
2022-11-22T19:18:57.480Z,8.70
2022-11-22T19:21:27.723Z,8.70
2022-11-22T19:23:56.245Z,8.60
2022-11-22T19:26:26.308Z,8.50
2022-11-22T19:28:56.111Z,8.70
2022-11-22T19:31:25.891Z,8.60
2022-11-22T19:33:52.655Z,9.00
2022-11-22T19:36:26.433Z,8.60
2022-11-22T19:38:57.826Z,8.70
2022-11-22T19:41:25.267Z,8.80
2022-11-22T19:43:52.166Z,8.60
2022-11-22T19:46:22.189Z,8.60
2022-11-22T19:48:54.463Z,8.70
2022-11-22T19:51:22.348Z,8.70
2022-11-22T19:53:53.349Z,8.50
2022-11-22T19:56:20.971Z,8.80
2022-11-22T19:58:53.967Z,8.60
2022-11-22T20:01:23.442Z,8.40
2022-11-22T20:03:58.980Z,8.50
2022-11-22T20:06:27.448Z,8.60
2022-11-22T20:09:01.292Z,8.40
2022-11-22T20:11:28.101Z,8.30
2022-11-22T20:13:54.883Z,8.40
2022-11-22T20:16:25.563Z,8.50
2022-11-22T20:19:00.663Z,8.40
2022-11-22T20:21:30.662Z,8.40
2022-11-22T20:23:58.122Z,8.30
2022-11-22T20:26:25.739Z,8.50
2022-11-22T20:28:59.177Z,8.40
2022-11-22T20:31:27.814Z,8.60
2022-11-22T20:33:55.554Z,8.40
2022-11-22T20:36:28.238Z,8.30
2022-11-22T20:38:55.598Z,8.30
2022-11-22T20:41:25.805Z,8.40
2022-11-22T20:43:53.136Z,8.40
2022-11-22T20:46:23.148Z,8.40
2022-11-22T20:48:51.954Z,8.60
2022-11-22T20:51:26.030Z,8.30
2022-11-22T20:53:53.415Z,8.40
2022-11-22T20:56:20.971Z,8.70
2022-11-22T20:58:48.084Z,8.60
2022-11-22T21:01:18.856Z,8.30
2022-11-22T21:03:46.431Z,8.40
2022-11-22T21:06:14.465Z,8.60
2022-11-22T21:08:41.558Z,8.40
2022-11-22T21:11:18.981Z,8.30
2022-11-22T21:13:47.080Z,8.40
2022-11-22T21:16:25.055Z,8.40
2022-11-22T21:19:01.777Z,8.60
2022-11-22T21:21:29.682Z,8.50
2022-11-22T21:23:59.886Z,8.40
2022-11-22T21:26:27.277Z,8.40
2022-11-22T21:28:54.427Z,8.20
2022-11-22T21:31:22.589Z,8.50
2022-11-22T21:33:49.775Z,8.30
2022-11-22T21:36:17.094Z,8.40
2022-11-22T21:38:43.872Z,8.30
2022-11-22T21:41:38.636Z,8.60
2022-11-22T21:44:04.486Z,8.30
2022-11-22T21:46:31.221Z,8.50
2022-11-22T21:48:58.007Z,8.20
2022-11-22T21:51:26.171Z,8.00
2022-11-22T21:54:00.827Z,8.10
2022-11-22T21:56:28.099Z,8.10
2022-11-22T21:58:55.410Z,8.40
2022-11-22T22:01:23.495Z,8.20
2022-11-22T22:03:50.385Z,8.90
2022-11-22T22:06:17.578Z,8.30
2022-11-22T22:08:44.358Z,8.40
2022-11-22T22:11:12.321Z,8.40
2022-11-22T22:13:39.088Z,8.30
2022-11-22T22:16:07.167Z,8.60
2022-11-22T22:18:38.031Z,8.60
2022-11-22T22:21:10.125Z,8.60
2022-11-22T22:23:39.529Z,9.20
2022-11-22T22:26:10.510Z,9.10
2022-11-22T22:28:39.243Z,9.30
2022-11-22T22:31:16.478Z,8.80
2022-11-22T22:33:45.369Z,8.90
2022-11-22T22:36:12.117Z,8.30
2022-11-22T22:38:39.003Z,8.40
2022-11-22T22:41:07.018Z,8.90
2022-11-22T22:43:41.793Z,8.70
2022-11-22T22:46:14.846Z,8.90
2022-11-22T22:48:41.949Z,9.20
2022-11-22T22:51:17.703Z,8.80
2022-11-22T22:53:45.257Z,8.20
2022-11-22T22:56:13.883Z,8.60
2022-11-22T22:58:40.916Z,9.30
2022-11-22T23:01:20.359Z,8.80
2022-11-22T23:03:55.422Z,9.30
2022-11-22T23:06:23.487Z,8.70
2022-11-22T23:08:52.329Z,8.40
2022-11-22T23:11:46.118Z,8.80
2022-11-22T23:14:15.809Z,8.70
2022-11-22T23:16:42.579Z,8.30
2022-11-22T23:19:09.657Z,8.30
2022-11-22T23:21:36.676Z,8.40
2022-11-22T23:24:04.230Z,8.50
2022-11-22T23:26:31.318Z,8.40
2022-11-22T23:28:59.599Z,8.10
2022-11-22T23:31:27.283Z,8.10
2022-11-22T23:33:54.492Z,8.30
2022-11-22T23:36:22.507Z,8.40
2022-11-22T23:38:49.404Z,8.10
2022-11-22T23:41:22.224Z,8.30
2022-11-22T23:43:54.370Z,8.10
2022-11-22T23:46:22.231Z,8.30
2022-11-22T23:48:54.556Z,8.30
2022-11-22T23:51:21.704Z,8.30
2022-11-22T23:53:48.523Z,8.50
2022-11-22T23:56:22.031Z,9.20
2022-11-22T23:58:49.978Z,8.80
